createdAt,value
2018-09-10T00:00:06.387Z,79.30
2018-09-10T00:01:05.809Z,78.25
2018-09-10T00:02:05.835Z,79.30
2018-09-10T00:03:05.855Z,78.73
2018-09-10T00:04:05.880Z,79.11
2018-09-10T00:05:05.910Z,78.92
2018-09-10T00:06:05.928Z,79.11
2018-09-10T00:07:05.953Z,78.63
2018-09-10T00:08:05.985Z,78.92
2018-09-10T00:09:05.999Z,79.02
2018-09-10T00:10:06.024Z,78.92
2018-09-10T00:11:06.053Z,79.69
2018-09-10T00:12:06.077Z,79.07
2018-09-10T00:13:06.098Z,79.30
2018-09-10T00:14:06.123Z,79.21
2018-09-10T00:15:06.143Z,80.04
2018-09-10T00:16:06.167Z,79.84
2018-09-10T00:17:06.192Z,79.69
2018-09-10T00:18:06.216Z,79.84
2018-09-10T00:19:06.246Z,79.69
2018-09-10T00:20:06.274Z,80.22
2018-09-10T00:21:06.287Z,79.79
2018-09-10T00:22:06.313Z,79.11
2018-09-10T00:23:06.337Z,79.30
2018-09-10T00:24:06.369Z,79.17
2018-09-10T00:25:06.385Z,79.17
2018-09-10T00:26:06.411Z,78.98
2018-09-10T00:27:06.437Z,79.40
2018-09-10T00:28:06.461Z,79.21
2018-09-10T00:29:06.486Z,78.78
2018-09-10T00:30:06.499Z,79.27
2018-09-10T00:31:06.535Z,78.83
2018-09-10T00:32:06.557Z,79.40
2018-09-10T00:33:06.582Z,79.50
2018-09-10T00:34:06.605Z,79.36
2018-09-10T00:35:06.633Z,79.27
2018-09-10T00:36:06.653Z,79.55
2018-09-10T00:37:06.677Z,79.55
2018-09-10T00:38:06.699Z,79.55
2018-09-10T00:39:06.725Z,79.17
2018-09-10T00:40:06.749Z,79.55
2018-09-10T00:41:06.771Z,79.36
2018-09-10T00:42:06.792Z,78.98
2018-09-10T00:43:06.821Z,79.65
2018-09-10T00:44:06.845Z,79.84
2018-09-10T00:45:06.866Z,79.55
2018-09-10T00:46:06.893Z,79.65
2018-09-10T00:47:06.921Z,79.17
2018-09-10T00:48:06.938Z,79.36
2018-09-10T00:49:06.958Z,79.46
2018-09-10T00:50:06.991Z,79.55
2018-09-10T00:51:07.013Z,79.21
2018-09-10T00:52:07.037Z,79.60
2018-09-10T00:53:07.056Z,79.07
2018-09-10T00:54:07.090Z,79.40
2018-09-10T00:55:07.113Z,79.30
2018-09-10T00:56:07.135Z,79.46
2018-09-10T00:57:07.157Z,79.17
2018-09-10T00:58:07.189Z,79.36
2018-09-10T00:59:07.207Z,80.13
2018-09-10T01:00:07.233Z,79.75
2018-09-10T01:01:07.249Z,79.55
2018-09-10T01:02:07.275Z,79.94
2018-09-10T01:03:07.301Z,80.32
2018-09-10T01:04:07.323Z,80.13
2018-09-10T01:05:07.347Z,80.32
2018-09-10T01:06:07.371Z,80.71
2018-09-10T01:07:07.395Z,80.71
2018-09-10T01:08:07.415Z,80.71
2018-09-10T01:09:07.441Z,80.61
2018-09-10T01:10:07.465Z,80.71
2018-09-10T01:11:07.494Z,80.51
2018-09-10T01:12:07.516Z,80.71
2018-09-10T01:13:07.539Z,80.51
2018-09-10T01:14:07.569Z,80.51
2018-09-10T01:15:07.587Z,80.90
2018-09-10T01:16:07.613Z,81.38
2018-09-10T01:17:07.631Z,81.48
2018-09-10T01:18:07.671Z,81.28
2018-09-10T01:19:07.683Z,81.19
2018-09-10T01:20:07.709Z,81.86
2018-09-10T01:21:07.732Z,81.86
2018-09-10T01:22:07.755Z,81.57
2018-09-10T01:23:07.780Z,81.48
2018-09-10T01:24:07.805Z,81.86
2018-09-10T01:25:07.828Z,81.72
2018-09-10T01:26:07.853Z,81.63
2018-09-10T01:27:07.870Z,81.82
2018-09-10T01:28:07.904Z,82.30
2018-09-10T01:29:07.919Z,82.20
2018-09-10T01:30:07.944Z,82.30
2018-09-10T01:31:07.970Z,82.30
2018-09-10T01:32:07.992Z,82.30
2018-09-10T01:33:08.021Z,82.43
2018-09-10T01:34:08.047Z,82.59
2018-09-10T01:35:08.065Z,82.59
2018-09-10T01:36:08.089Z,82.30
2018-09-10T01:37:08.118Z,82.10
2018-09-10T01:38:08.136Z,82.49
2018-09-10T01:39:08.161Z,82.49
2018-09-10T01:40:08.187Z,82.40
2018-09-10T01:41:08.203Z,82.78
2018-09-10T01:42:08.234Z,82.78
2018-09-10T01:43:08.262Z,82.78
2018-09-10T01:44:08.277Z,82.97
2018-09-10T01:45:08.307Z,83.07
2018-09-10T01:46:08.322Z,83.26
2018-09-10T01:47:08.353Z,83.16
2018-09-10T01:48:08.380Z,83.07
2018-09-10T01:49:08.397Z,82.78
2018-09-10T01:50:08.418Z,82.93
2018-09-10T01:51:08.443Z,83.84
2018-09-10T01:52:08.478Z,83.64
2018-09-10T01:53:08.493Z,83.36
2018-09-10T01:54:08.517Z,83.45
2018-09-10T01:55:08.542Z,83.07
2018-09-10T01:56:08.564Z,82.78
2018-09-10T01:57:08.587Z,82.64
2018-09-10T01:58:08.655Z,83.16
2018-09-10T01:59:08.632Z,82.97
2018-09-10T02:00:08.658Z,82.40
2018-09-10T02:01:08.676Z,82.97
2018-09-10T02:02:08.704Z,82.78
2018-09-10T02:03:08.732Z,82.49
2018-09-10T02:04:08.757Z,82.87
2018-09-10T02:05:08.773Z,82.78
2018-09-10T02:06:08.801Z,82.97
2018-09-10T02:07:08.824Z,82.59
2018-09-10T02:08:08.847Z,82.87
2018-09-10T02:09:08.872Z,82.59
2018-09-10T02:10:08.893Z,82.59
2018-09-10T02:11:08.927Z,82.59
2018-09-10T02:12:08.943Z,82.97
2018-09-10T02:13:08.964Z,82.97
2018-09-10T02:14:08.990Z,83.16
2018-09-10T02:15:09.015Z,82.97
2018-09-10T02:16:09.040Z,82.87
2018-09-10T02:17:09.101Z,83.07
2018-09-10T02:18:09.083Z,82.59
2018-09-10T02:19:09.108Z,82.59
2018-09-10T02:20:09.178Z,82.97
2018-09-10T02:21:09.151Z,82.97
2018-09-10T02:22:09.177Z,82.40
2018-09-10T02:23:09.203Z,82.49
2018-09-10T02:24:09.223Z,82.97
2018-09-10T02:25:09.249Z,82.68
2018-09-10T02:26:09.274Z,82.78
2018-09-10T02:27:09.302Z,82.49
2018-09-10T02:28:09.324Z,82.78
2018-09-10T02:29:09.373Z,82.30
2018-09-10T02:30:09.383Z,82.40
2018-09-10T02:31:09.393Z,81.82
2018-09-10T02:32:09.415Z,82.01
2018-09-10T02:33:09.440Z,82.40
2018-09-10T02:34:09.459Z,81.63
2018-09-10T02:35:09.489Z,81.92
2018-09-10T02:36:09.516Z,81.63
2018-09-10T02:37:09.532Z,81.67
2018-09-10T02:38:09.563Z,81.86
2018-09-10T02:39:09.591Z,81.72
2018-09-10T02:40:09.603Z,81.82
2018-09-10T02:41:09.627Z,81.57
2018-09-10T02:42:09.657Z,81.15
2018-09-10T02:43:09.679Z,81.05
2018-09-10T02:44:09.699Z,81.63
2018-09-10T02:45:09.721Z,81.92
2018-09-10T02:46:09.753Z,82.49
2018-09-10T02:47:09.776Z,82.20
2018-09-10T02:48:09.795Z,82.30
2018-09-10T02:49:09.819Z,82.97
2018-09-10T02:50:09.841Z,83.16
2018-09-10T02:51:09.866Z,83.16
2018-09-10T02:52:09.888Z,83.26
2018-09-10T02:53:09.922Z,83.45
2018-09-10T02:54:09.940Z,83.84
2018-09-10T02:55:09.975Z,83.93
2018-09-10T02:56:09.981Z,84.03
2018-09-10T02:57:10.013Z,83.64
2018-09-10T02:58:10.035Z,83.84
2018-09-10T02:59:10.056Z,83.64
2018-09-10T03:00:10.095Z,83.74
2018-09-10T03:01:10.104Z,83.16
2018-09-10T03:02:10.132Z,83.84
2018-09-10T03:03:10.151Z,82.97
2018-09-10T03:04:10.177Z,83.26
2018-09-10T03:05:10.199Z,83.93
2018-09-10T03:06:10.226Z,83.84
2018-09-10T03:07:10.247Z,83.93
2018-09-10T03:08:10.266Z,83.26
2018-09-10T03:09:10.293Z,83.16
2018-09-10T03:10:10.317Z,83.07
2018-09-10T03:11:10.342Z,83.36
2018-09-10T03:12:10.371Z,83.84
2018-09-10T03:13:10.389Z,83.45
2018-09-10T03:14:10.405Z,83.74
2018-09-10T03:15:10.433Z,82.93
2018-09-10T03:16:10.455Z,83.51
2018-09-10T03:17:10.483Z,82.93
2018-09-10T03:18:10.507Z,83.16
2018-09-10T03:19:10.527Z,83.22
2018-09-10T03:20:10.551Z,82.87
2018-09-10T03:21:10.573Z,83.84
2018-09-10T03:22:10.595Z,83.74
2018-09-10T03:23:10.624Z,83.60
2018-09-10T03:24:10.671Z,83.45
2018-09-10T03:25:10.665Z,83.45
2018-09-10T03:26:10.690Z,82.78
2018-09-10T03:27:10.712Z,83.45
2018-09-10T03:28:10.748Z,83.26
2018-09-10T03:29:10.761Z,82.87
2018-09-10T03:30:10.812Z,83.36
2018-09-10T03:31:10.814Z,83.16
2018-09-10T03:32:10.834Z,82.87
2018-09-10T03:33:10.858Z,83.16
2018-09-10T03:34:10.889Z,82.97
2018-09-10T03:35:10.902Z,82.87
2018-09-10T03:36:10.932Z,82.64
2018-09-10T03:37:10.956Z,82.97
2018-09-10T03:38:10.976Z,82.40
2018-09-10T03:39:10.999Z,83.07
2018-09-10T03:40:11.021Z,82.87
2018-09-10T03:41:11.048Z,82.78
2018-09-10T03:42:11.072Z,82.30
2018-09-10T03:43:11.111Z,81.82
2018-09-10T03:44:11.123Z,81.82
2018-09-10T03:45:11.145Z,82.10
2018-09-10T03:46:11.160Z,82.59
2018-09-10T03:47:11.200Z,82.59
2018-09-10T03:48:11.210Z,82.01
2018-09-10T03:49:11.235Z,82.10
2018-09-10T03:50:11.258Z,81.82
2018-09-10T03:51:11.277Z,82.49
2018-09-10T03:52:11.304Z,82.78
2018-09-10T03:53:11.332Z,82.30
2018-09-10T03:54:11.348Z,82.10
2018-09-10T03:55:11.378Z,81.82
2018-09-10T03:56:11.399Z,82.40
2018-09-10T03:57:11.424Z,82.49
2018-09-10T03:58:11.444Z,82.49
2018-09-10T03:59:11.468Z,82.30
2018-09-10T04:00:11.497Z,82.49
2018-09-10T04:01:11.528Z,82.87
2018-09-10T04:02:11.540Z,82.30
2018-09-10T04:03:11.564Z,82.68
2018-09-10T04:04:11.588Z,82.87
2018-09-10T04:05:11.606Z,82.78
2018-09-10T04:06:11.638Z,82.97
2018-09-10T04:07:11.661Z,83.16
2018-09-10T04:08:11.684Z,82.78
2018-09-10T04:09:11.702Z,82.40
2018-09-10T04:10:11.730Z,82.40
2018-09-10T04:11:11.754Z,82.30
2018-09-10T04:12:11.776Z,82.78
2018-09-10T04:13:11.799Z,82.49
2018-09-10T04:14:11.824Z,82.78
2018-09-10T04:15:11.855Z,82.97
2018-09-10T04:16:11.872Z,83.45
2018-09-10T04:17:12.012Z,83.16
2018-09-10T04:18:11.920Z,82.97
2018-09-10T04:19:11.944Z,83.07
2018-09-10T04:20:11.961Z,83.36
2018-09-10T04:21:11.989Z,83.26
2018-09-10T04:22:12.016Z,83.45
2018-09-10T04:23:12.037Z,82.97
2018-09-10T04:24:12.060Z,83.45
2018-09-10T04:25:12.078Z,83.26
2018-09-10T04:26:12.112Z,83.16
2018-09-10T04:27:12.128Z,83.45
2018-09-10T04:28:12.150Z,83.54
2018-09-10T04:29:12.176Z,83.74
2018-09-10T04:30:12.198Z,83.54
2018-09-10T04:31:12.220Z,83.26
2018-09-10T04:32:12.247Z,83.64
2018-09-10T04:33:12.267Z,83.93
2018-09-10T04:34:12.290Z,83.36
2018-09-10T04:35:12.322Z,83.93
2018-09-10T04:36:12.447Z,83.54
2018-09-10T04:37:12.361Z,83.64
2018-09-10T04:38:12.387Z,83.45
2018-09-10T04:39:12.416Z,82.87
2018-09-10T04:40:12.435Z,83.26
2018-09-10T04:41:12.456Z,83.07
2018-09-10T04:42:12.488Z,83.16
2018-09-10T04:43:12.509Z,82.97
2018-09-10T04:44:12.529Z,82.49
2018-09-10T04:45:12.560Z,82.59
2018-09-10T04:46:12.582Z,82.68
2018-09-10T04:47:12.605Z,82.97
2018-09-10T04:48:12.624Z,82.40
2018-09-10T04:49:12.646Z,83.07
2018-09-10T04:50:12.679Z,83.16
2018-09-10T04:51:12.693Z,83.45
2018-09-10T04:52:12.722Z,83.07
2018-09-10T04:53:12.746Z,82.59
2018-09-10T04:54:12.766Z,83.16
2018-09-10T04:55:12.794Z,82.87
2018-09-10T04:56:12.812Z,83.36
2018-09-10T04:57:12.842Z,82.97
2018-09-10T04:58:12.949Z,83.07
2018-09-10T04:59:12.885Z,82.78
2018-09-10T05:00:12.909Z,83.16
2018-09-10T05:01:12.924Z,82.59
2018-09-10T05:02:12.957Z,82.78
2018-09-10T05:03:12.975Z,82.87
2018-09-10T05:04:13.002Z,82.97
2018-09-10T05:05:13.020Z,82.68
2018-09-10T05:06:13.048Z,83.16
2018-09-10T05:07:13.072Z,82.97
2018-09-10T05:08:13.101Z,82.97
2018-09-10T05:09:13.120Z,82.87
2018-09-10T05:10:13.141Z,82.87
2018-09-10T05:11:13.164Z,82.78
2018-09-10T05:12:13.190Z,82.40
2018-09-10T05:13:13.213Z,81.82
2018-09-10T05:14:13.235Z,82.87
2018-09-10T05:15:13.256Z,82.87
2018-09-10T05:16:13.281Z,83.16
2018-09-10T05:17:13.319Z,82.97
2018-09-10T05:18:13.331Z,82.97
2018-09-10T05:19:13.360Z,82.78
2018-09-10T05:20:13.382Z,83.07
2018-09-10T05:21:13.401Z,82.97
2018-09-10T05:22:13.424Z,83.40
2018-09-10T05:23:13.451Z,83.36
2018-09-10T05:24:13.478Z,83.64
2018-09-10T05:25:13.500Z,83.49
2018-09-10T05:26:13.519Z,82.53
2018-09-10T05:27:13.539Z,82.63
2018-09-10T05:28:13.637Z,82.53
2018-09-10T05:29:13.590Z,82.43
2018-09-10T05:30:13.614Z,82.43
2018-09-10T05:31:13.641Z,82.34
2018-09-10T05:32:13.660Z,82.05
2018-09-10T05:33:13.719Z,81.76
2018-09-10T05:34:13.758Z,81.86
2018-09-10T05:35:13.741Z,80.99
2018-09-10T05:36:13.757Z,81.19
2018-09-10T05:37:13.781Z,81.48
2018-09-10T05:38:13.806Z,81.28
2018-09-10T05:39:13.833Z,80.80
2018-09-10T05:40:13.855Z,80.99
2018-09-10T05:41:13.875Z,80.51
2018-09-10T05:42:13.902Z,80.32
2018-09-10T05:43:13.927Z,80.51
2018-09-10T05:44:13.949Z,80.65
2018-09-10T05:45:14.023Z,80.04
2018-09-10T05:46:13.995Z,80.46
2018-09-10T05:47:14.028Z,80.55
2018-09-10T05:48:14.044Z,79.88
2018-09-10T05:49:14.069Z,79.60
2018-09-10T05:50:14.094Z,79.60
2018-09-10T05:51:14.116Z,78.92
2018-09-10T05:52:14.139Z,79.25
2018-09-10T05:53:14.165Z,79.44
2018-09-10T05:54:14.189Z,78.67
2018-09-10T05:55:14.216Z,78.09
2018-09-10T05:56:14.234Z,77.33
2018-09-10T05:57:14.260Z,77.42
2018-09-10T05:58:14.284Z,76.46
2018-09-10T05:59:14.327Z,76.84
2018-09-10T06:00:14.341Z,76.56
2018-09-10T06:01:14.355Z,76.17
2018-09-10T06:02:14.383Z,77.04
2018-09-10T06:03:14.404Z,77.61
2018-09-10T06:04:14.435Z,77.33
2018-09-10T06:05:14.455Z,77.51
2018-09-10T06:06:14.487Z,77.51
2018-09-10T06:07:14.502Z,78.23
2018-09-10T06:08:14.531Z,77.42
2018-09-10T06:09:14.551Z,77.71
2018-09-10T06:10:14.577Z,78.77
2018-09-10T06:11:14.599Z,78.38
2018-09-10T06:12:14.628Z,79.44
2018-09-10T06:13:14.656Z,79.15
2018-09-10T06:14:14.674Z,79.53
2018-09-10T06:15:14.705Z,79.92
2018-09-10T06:16:14.732Z,78.77
2018-09-10T06:17:14.745Z,78.67
2018-09-10T06:18:14.768Z,78.48
2018-09-10T06:19:14.796Z,78.09
2018-09-10T06:20:14.828Z,79.05
2018-09-10T06:21:14.844Z,79.25
2018-09-10T06:22:14.870Z,79.25
2018-09-10T06:23:14.894Z,79.00
2018-09-10T06:24:14.923Z,79.77
2018-09-10T06:25:14.954Z,80.06
2018-09-10T06:26:14.967Z,80.15
2018-09-10T06:27:14.996Z,79.96
2018-09-10T06:28:15.014Z,79.96
2018-09-10T06:29:15.041Z,79.92
2018-09-10T06:30:15.090Z,80.69
2018-09-10T06:31:15.085Z,80.83
2018-09-10T06:32:15.113Z,80.98
2018-09-10T06:33:15.145Z,80.69
2018-09-10T06:34:15.217Z,79.73
2018-09-10T06:35:15.188Z,78.00
2018-09-10T06:36:15.214Z,79.53
2018-09-10T06:37:15.346Z,83.29
2018-09-10T06:38:15.257Z,84.83
2018-09-10T06:39:15.288Z,85.60
2018-09-10T06:40:15.314Z,86.65
2018-09-10T06:41:15.333Z,84.98
2018-09-10T06:42:15.361Z,86.80
2018-09-10T06:43:15.386Z,87.76
2018-09-10T06:44:15.407Z,88.82
2018-09-10T06:45:15.433Z,89.83
2018-09-10T06:46:15.449Z,89.07
2018-09-10T06:47:15.483Z,88.59
2018-09-10T06:48:15.504Z,90.99
2018-09-10T06:49:15.523Z,90.60
2018-09-10T06:50:15.552Z,87.53
2018-09-10T06:51:15.573Z,89.64
2018-09-10T06:52:15.601Z,87.82
2018-09-10T06:53:15.643Z,90.60
2018-09-10T06:54:15.643Z,90.51
2018-09-10T06:55:15.670Z,88.20
2018-09-10T06:56:15.685Z,88.59
2018-09-10T06:57:15.715Z,87.72
2018-09-10T06:58:15.731Z,86.04
2018-09-10T06:59:15.757Z,86.90
2018-09-10T07:00:15.856Z,86.80
2018-09-10T07:01:15.809Z,86.99
2018-09-10T07:02:15.840Z,86.61
2018-09-10T07:03:15.852Z,85.55
2018-09-10T07:04:15.875Z,85.07
2018-09-10T07:05:15.897Z,84.78
2018-09-10T07:06:15.930Z,85.94
2018-09-10T07:07:15.948Z,83.92
2018-09-10T07:08:15.969Z,85.17
2018-09-10T07:09:15.991Z,84.01
2018-09-10T07:10:16.011Z,82.96
2018-09-10T07:11:16.037Z,83.96
2018-09-10T07:12:16.062Z,82.52
2018-09-10T07:13:16.146Z,81.94
2018-09-10T07:14:16.108Z,81.37
2018-09-10T07:15:16.132Z,83.09
2018-09-10T07:16:16.153Z,83.19
2018-09-10T07:17:16.209Z,84.54
2018-09-10T07:18:16.201Z,83.09
2018-09-10T07:19:16.228Z,81.56
2018-09-10T07:20:16.250Z,81.13
2018-09-10T07:21:16.271Z,83.58
2018-09-10T07:22:16.303Z,84.83
2018-09-10T07:23:16.321Z,81.75
2018-09-10T07:24:16.351Z,81.23
2018-09-10T07:25:16.366Z,80.79
2018-09-10T07:26:16.390Z,81.84
2018-09-10T07:27:16.409Z,83.00
2018-09-10T07:28:16.437Z,82.42
2018-09-10T07:29:16.455Z,81.94
2018-09-10T07:30:16.491Z,82.04
2018-09-10T07:31:19.129Z,81.94
2018-09-10T07:32:16.533Z,81.37
2018-09-10T07:33:16.562Z,81.94
2018-09-10T07:34:19.209Z,81.75
2018-09-10T07:35:16.607Z,81.94
2018-09-10T07:36:16.639Z,83.39
2018-09-10T07:37:16.661Z,81.75
2018-09-10T07:38:16.676Z,80.65
2018-09-10T07:39:16.701Z,81.27
2018-09-10T07:40:16.741Z,80.60
2018-09-10T07:41:16.761Z,80.02
2018-09-10T07:42:16.771Z,80.21
2018-09-10T07:43:16.821Z,79.73
2018-09-10T07:44:16.872Z,80.02
2018-09-10T07:46:16.865Z,79.53
2018-09-10T07:47:16.892Z,78.96
2018-09-10T07:48:16.909Z,79.48
2018-09-10T07:49:16.937Z,78.61
2018-09-10T07:50:16.968Z,79.77
2018-09-10T07:51:16.991Z,79.48
2018-09-10T07:52:17.014Z,79.10
2018-09-10T07:53:17.044Z,79.96
2018-09-10T07:54:17.061Z,78.61
2018-09-10T07:55:17.093Z,78.52
2018-09-10T07:56:17.109Z,78.81
2018-09-10T07:57:17.132Z,79.00
2018-09-10T07:58:17.159Z,79.77
2018-09-10T07:59:17.175Z,79.10
2018-09-10T08:00:17.201Z,78.71
2018-09-10T08:01:17.229Z,79.10
2018-09-10T08:02:17.249Z,79.38
2018-09-10T08:03:17.282Z,79.19
2018-09-10T08:04:17.298Z,78.61
2018-09-10T08:05:17.325Z,78.42
2018-09-10T08:06:17.347Z,78.71
2018-09-10T08:07:17.370Z,78.81
2018-09-10T08:08:17.391Z,78.81
2018-09-10T08:09:17.535Z,78.61
2018-09-10T08:10:17.439Z,78.90
2018-09-10T08:11:17.462Z,78.23
2018-09-10T08:12:17.487Z,77.40
2018-09-10T08:13:17.517Z,77.59
2018-09-10T08:14:17.534Z,77.69
2018-09-10T08:15:17.565Z,77.40
2018-09-10T08:16:17.586Z,77.69
2018-09-10T08:17:17.613Z,76.73
2018-09-10T08:18:17.641Z,77.31
2018-09-10T08:19:17.659Z,76.82
2018-09-10T08:20:17.680Z,77.01
2018-09-10T08:21:17.705Z,77.01
2018-09-10T08:22:17.731Z,77.50
2018-09-10T08:23:17.748Z,77.53
2018-09-10T08:24:17.841Z,77.53
2018-09-10T08:25:17.819Z,76.76
2018-09-10T08:26:17.886Z,75.80
2018-09-10T08:27:17.845Z,75.51
2018-09-10T08:28:17.874Z,75.51
2018-09-10T08:29:17.897Z,75.80
2018-09-10T08:30:17.955Z,76.51
2018-09-10T08:31:17.948Z,76.38
2018-09-10T08:32:17.972Z,78.02
2018-09-10T08:33:17.996Z,76.76
2018-09-10T08:34:18.018Z,78.65
2018-09-10T08:35:18.050Z,79.33
2018-09-10T08:36:18.070Z,79.43
2018-09-10T08:37:18.092Z,80.58
2018-09-10T08:38:18.119Z,79.33
2018-09-10T08:39:18.157Z,78.56
2018-09-10T08:40:18.173Z,78.11
2018-09-10T08:41:18.187Z,78.21
2018-09-10T08:42:18.221Z,78.69
2018-09-10T08:43:18.239Z,77.92
2018-09-10T08:44:18.279Z,78.69
2018-09-10T08:45:18.294Z,78.59
2018-09-10T08:46:18.316Z,77.34
2018-09-10T08:47:18.339Z,77.25
2018-09-10T08:48:18.427Z,79.08
2018-09-10T08:49:18.383Z,77.92
2018-09-10T08:50:18.413Z,77.15
2018-09-10T08:51:18.433Z,77.00
2018-09-10T08:52:18.457Z,76.86
2018-09-10T08:53:18.481Z,76.96
2018-09-10T08:54:18.817Z,77.28
2018-09-10T08:55:18.648Z,77.73
2018-09-10T08:56:18.738Z,77.73
2018-09-10T08:57:18.582Z,78.31
2018-09-10T08:58:18.608Z,78.06
2018-09-10T08:59:18.635Z,77.73
2018-09-10T09:00:18.746Z,77.73
2018-09-10T09:01:18.693Z,78.59
2018-09-10T09:02:18.704Z,78.59
2018-09-10T09:03:18.731Z,78.21
2018-09-10T09:04:18.749Z,77.63
2018-09-10T09:05:18.776Z,80.04
2018-09-10T09:06:18.822Z,80.85
2018-09-10T09:07:18.834Z,82.10
2018-09-10T09:08:18.861Z,79.41
2018-09-10T09:09:18.877Z,78.92
2018-09-10T09:10:18.908Z,79.41
2018-09-10T09:11:18.927Z,78.67
2018-09-10T09:12:18.947Z,77.51
2018-09-10T09:13:18.979Z,76.93
2018-09-10T09:14:18.999Z,77.61
2018-09-10T09:15:19.039Z,77.46
2018-09-10T09:16:19.053Z,77.61
2018-09-10T09:17:19.083Z,77.94
2018-09-10T09:18:19.098Z,78.00
2018-09-10T09:19:19.126Z,78.96
2018-09-10T09:20:19.154Z,77.94
2018-09-10T09:21:19.176Z,78.42
2018-09-10T09:22:19.200Z,77.71
2018-09-10T09:23:19.243Z,79.25
2018-09-10T09:24:19.254Z,78.96
2018-09-10T09:25:19.276Z,79.58
2018-09-10T09:26:19.296Z,78.61
2018-09-10T09:27:19.359Z,77.55
2018-09-10T09:28:19.353Z,78.42
2018-09-10T09:29:19.372Z,78.86
2018-09-10T09:30:19.482Z,78.67
2018-09-10T09:31:19.426Z,78.71
2018-09-10T09:32:19.452Z,78.91
2018-09-10T09:33:19.482Z,78.61
2018-09-10T09:34:19.502Z,79.10
2018-09-10T09:35:19.524Z,78.33
2018-09-10T09:36:19.579Z,78.42
2018-09-10T09:37:19.576Z,78.81
2018-09-10T09:38:19.602Z,79.10
2018-09-10T09:39:19.632Z,80.64
2018-09-10T09:40:19.656Z,79.19
2018-09-10T09:41:19.683Z,80.45
2018-09-10T09:42:19.708Z,80.16
2018-09-10T09:43:19.740Z,79.77
2018-09-10T09:44:19.757Z,79.10
2018-09-10T09:45:19.784Z,78.81
2018-09-10T09:46:19.807Z,78.94
2018-09-10T09:47:19.828Z,78.75
2018-09-10T09:48:19.868Z,78.46
2018-09-10T09:49:19.886Z,78.75
2018-09-10T09:50:19.914Z,78.56
2018-09-10T09:51:19.962Z,78.36
2018-09-10T09:54:20.011Z,78.75
2018-09-10T09:55:20.040Z,78.85
2018-09-10T10:00:49.682Z,78.36
2018-09-10T10:12:36.944Z,83.30
2018-09-10T10:35:38.839Z,84.31
2018-09-10T10:51:17.634Z,76.39
2018-09-10T10:52:17.656Z,74.36
2018-09-10T10:53:17.691Z,73.84
2018-09-10T10:54:17.712Z,74.52
2018-09-10T10:55:17.744Z,74.04
2018-09-10T10:56:17.769Z,73.88
2018-09-10T10:57:17.801Z,74.65
2018-09-10T10:58:17.829Z,75.20
2018-09-10T10:59:17.854Z,74.52
2018-09-10T11:00:17.881Z,74.52
2018-09-10T11:01:17.909Z,75.81
2018-09-10T11:02:17.937Z,74.07
2018-09-10T11:04:18.083Z,66.66
2018-09-10T11:05:20.639Z,64.82
2018-09-10T11:06:18.043Z,63.82
2018-09-10T11:07:18.072Z,61.97
2018-09-10T11:08:18.105Z,63.26
2018-09-10T11:09:18.133Z,65.05
2018-09-10T11:11:18.188Z,66.95
2018-09-10T11:12:18.220Z,63.20
2018-09-10T11:13:18.250Z,62.88
2018-09-10T11:14:18.276Z,64.43
2018-09-10T11:15:18.310Z,62.04
2018-09-10T11:16:18.340Z,59.95
2018-09-10T11:17:20.993Z,56.75
2018-09-10T11:18:18.405Z,59.87
2018-09-10T11:19:18.427Z,60.62
2018-09-10T11:20:18.454Z,63.21
2018-09-10T11:21:18.491Z,64.37
2018-09-10T11:22:18.552Z,60.38
2018-09-10T11:23:18.554Z,58.64
2018-09-10T11:24:18.583Z,60.03
2018-09-10T11:25:18.610Z,58.98
2018-09-10T11:26:18.642Z,56.64
2018-09-10T11:27:18.677Z,53.89
2018-09-10T11:28:18.705Z,50.80
2018-09-10T11:29:18.734Z,52.31
2018-09-10T11:30:18.762Z,53.62
2018-09-10T11:31:18.801Z,52.60
2018-09-10T11:32:18.832Z,49.54
2018-09-10T11:33:18.859Z,50.90
2018-09-10T11:34:18.892Z,53.01
2018-09-10T11:35:18.922Z,52.94
2018-09-10T11:36:18.962Z,53.08
2018-09-10T11:37:18.986Z,52.23
2018-09-10T11:38:20.033Z,50.99
2018-09-10T11:39:19.056Z,51.31
2018-09-10T11:40:19.094Z,49.88
2018-09-10T11:41:19.116Z,49.15
2018-09-10T11:42:19.355Z,50.78
2018-09-10T11:43:19.187Z,52.69
2018-09-10T11:44:19.215Z,53.61
2018-09-10T11:45:22.676Z,54.50
2018-09-10T11:46:20.495Z,55.77
2018-09-10T11:47:19.305Z,54.88
2018-09-10T11:48:21.955Z,55.43
2018-09-10T11:49:20.580Z,56.25
2018-09-10T11:50:19.399Z,57.45
2018-09-10T11:51:19.440Z,59.27
2018-09-10T11:52:23.502Z,61.08
2018-09-10T11:54:47.338Z,59.30
2018-09-10T11:55:47.448Z,56.89
2018-09-10T11:56:47.387Z,54.42
2018-09-10T11:57:47.421Z,52.43
2018-09-10T11:58:47.456Z,50.90
2018-09-10T11:59:47.485Z,50.21
2018-09-10T12:00:47.525Z,50.60
2018-09-10T12:01:47.607Z,51.36
2018-09-10T12:02:47.581Z,51.21
2018-09-10T12:03:47.610Z,50.31
2018-09-10T12:04:47.646Z,50.21
2018-09-10T12:05:47.673Z,50.92
2018-09-10T12:06:47.704Z,50.68
2018-09-10T12:11:26.255Z,55.11
2018-09-10T12:13:08.837Z,56.37
2018-09-10T12:14:08.869Z,57.22
2018-09-10T12:15:08.901Z,54.92
2018-09-10T12:16:56.499Z,54.03
2018-09-10T12:29:28.899Z,59.20
2018-09-10T12:30:28.939Z,58.23
2018-09-10T12:31:29.769Z,58.45
2018-09-10T12:32:29.040Z,60.24
2018-09-10T12:33:29.018Z,58.78
2018-09-10T12:34:29.061Z,59.91
2018-09-10T12:35:29.079Z,60.50
2018-09-10T12:36:29.112Z,59.84
2018-09-10T12:37:29.138Z,61.49
2018-09-10T12:38:29.166Z,59.75
2018-09-10T12:39:29.210Z,59.39
2018-09-10T12:40:29.228Z,60.46
2018-09-10T12:41:29.254Z,58.72
2018-09-10T12:42:29.286Z,57.55
2018-09-10T12:43:29.317Z,57.26
2018-09-10T12:44:29.352Z,55.71
2018-09-10T12:45:29.374Z,57.00
2018-09-10T12:46:29.473Z,56.59
2018-09-10T12:47:29.436Z,57.65
2018-09-10T12:48:29.466Z,55.78
2018-09-10T12:49:29.492Z,56.16
2018-09-10T12:50:29.529Z,57.71
2018-09-10T12:51:29.556Z,57.91
2018-09-10T12:52:29.588Z,58.30
2018-09-10T12:53:29.613Z,57.20
2018-09-10T12:54:29.643Z,58.85
2018-09-10T12:55:29.679Z,59.11
2018-09-10T12:56:29.695Z,60.34
2018-09-10T12:57:29.744Z,61.47
2018-09-10T12:58:29.758Z,61.57
2018-09-10T12:59:29.787Z,61.18
2018-09-10T13:00:29.817Z,61.76
2018-09-10T13:01:29.843Z,61.66
2018-09-10T13:02:29.868Z,62.05
2018-09-10T13:03:29.899Z,61.57
2018-09-10T13:04:29.934Z,62.63
2018-09-10T13:05:29.959Z,64.56
2018-09-10T13:06:29.980Z,63.98
2018-09-10T13:07:30.009Z,64.53
2018-09-10T13:08:30.043Z,64.82
2018-09-10T13:09:30.071Z,63.56
2018-09-10T13:10:30.122Z,62.89
2018-09-10T13:11:30.131Z,63.76
2018-09-10T13:12:30.148Z,63.47
2018-09-10T13:13:30.178Z,64.24
2018-09-10T13:14:30.209Z,63.56
2018-09-10T13:15:30.233Z,63.31
2018-09-10T13:16:30.260Z,64.56
2018-09-10T13:17:30.284Z,65.05
2018-09-10T13:18:30.316Z,65.43
2018-09-10T13:19:30.339Z,64.27
2018-09-10T13:20:30.374Z,66.30
2018-09-10T13:21:30.400Z,65.82
2018-09-10T13:22:30.424Z,63.05
2018-09-10T13:23:30.451Z,62.56
2018-09-10T13:24:30.475Z,63.82
2018-09-10T13:25:30.512Z,62.30
2018-09-10T13:26:30.538Z,61.82
2018-09-10T13:27:30.577Z,62.53
2018-09-10T13:28:30.593Z,61.85
2018-09-10T13:29:30.615Z,59.82
2018-09-10T13:30:30.643Z,60.78
2018-09-10T13:31:30.669Z,59.66
2018-09-10T13:32:30.709Z,59.27
2018-09-10T13:33:30.747Z,60.24
2018-09-10T13:34:30.757Z,61.21
2018-09-10T13:35:30.789Z,59.36
2018-09-10T13:36:30.847Z,58.42
2018-09-10T13:37:30.853Z,58.23
2018-09-10T13:38:30.865Z,56.61
2018-09-10T13:39:32.321Z,57.48
2018-09-10T13:40:30.929Z,59.91
2018-09-10T13:42:30.987Z,57.45
2018-09-10T13:43:31.012Z,56.03
2018-09-10T13:45:33.840Z,57.53
2018-09-10T13:46:33.664Z,58.69
2018-09-10T13:47:33.697Z,58.69
2018-09-10T13:48:33.726Z,58.30
2018-09-10T13:49:33.756Z,58.88
2018-09-10T13:50:34.117Z,58.95
2018-09-10T13:52:33.844Z,60.17
2018-09-10T13:53:33.919Z,59.21
2018-09-10T13:54:33.894Z,60.95
2018-09-10T13:55:33.931Z,61.30
2018-09-10T13:56:33.955Z,61.37
2018-09-10T13:57:33.984Z,62.15
2018-09-10T13:58:34.009Z,63.40
2018-09-10T13:59:34.067Z,64.34
2018-09-10T14:01:34.110Z,64.82
2018-09-10T14:02:34.551Z,64.31
2018-09-10T14:03:34.144Z,65.78
2018-09-10T14:04:34.176Z,66.72
2018-09-10T14:05:34.209Z,66.91
2018-09-10T14:06:34.233Z,66.24
2018-09-10T14:07:34.261Z,66.82
2018-09-10T14:08:34.287Z,66.91
2018-09-10T14:09:34.318Z,66.53
2018-09-10T14:10:34.406Z,67.59
2018-09-10T14:11:34.366Z,67.20